createdAt,value
2019-03-30T00:02:52.632Z,21.40
2019-03-30T00:05:31.189Z,21.50
2019-03-30T00:10:46.445Z,21.80
2019-03-30T00:13:24.736Z,21.30
2019-03-30T00:16:02.940Z,21.70
2019-03-30T00:18:41.636Z,21.50
2019-03-30T00:23:55.948Z,21.70
2019-03-30T00:26:34.048Z,21.80
2019-03-30T00:29:12.204Z,22.40
2019-03-30T00:31:50.343Z,22.40
2019-03-30T00:34:28.477Z,21.90
2019-03-30T00:37:06.792Z,22.30
2019-03-30T00:39:44.913Z,23.20
2019-03-30T00:42:23.039Z,22.20
2019-03-30T00:47:36.963Z,22.70
2019-03-30T00:50:15.276Z,23.00
2019-03-30T01:05:50.160Z,22.70
2019-03-30T01:11:03.767Z,22.90
2019-03-30T01:13:42.108Z,23.30
2019-03-30T01:16:20.338Z,23.10
2019-03-30T01:18:58.460Z,23.10
2019-03-30T01:21:36.946Z,22.70
2019-03-30T01:24:15.241Z,23.40
2019-03-30T01:32:06.238Z,23.20
2019-03-30T01:34:44.422Z,23.00
2019-03-30T01:42:33.231Z,23.10
2019-03-30T01:45:12.059Z,23.10
2019-03-30T01:47:50.262Z,23.10
2019-03-30T01:50:29.622Z,22.80
2019-03-30T01:53:07.837Z,23.00
2019-03-30T01:55:45.952Z,23.50
2019-03-30T02:00:59.515Z,23.20
2019-03-30T02:08:48.303Z,23.70
2019-03-30T02:11:26.459Z,23.70
2019-03-30T02:16:40.220Z,23.80
2019-03-30T02:19:18.469Z,24.00
2019-03-30T02:21:56.619Z,24.00
2019-03-30T02:24:34.902Z,24.20
2019-03-30T02:27:12.972Z,24.30
2019-03-30T02:29:51.223Z,24.50
2019-03-30T02:32:29.364Z,25.00
2019-03-30T02:35:07.612Z,25.00
2019-03-30T02:37:47.568Z,25.00
2019-03-30T02:43:00.970Z,25.10
2019-03-30T02:50:51.527Z,25.40
2019-03-30T02:53:29.639Z,25.30
2019-03-30T03:03:53.655Z,25.30
2019-03-30T03:06:31.798Z,25.20
2019-03-30T03:09:11.591Z,25.30
2019-03-30T03:11:49.733Z,25.00
2019-03-30T03:14:30.585Z,25.10
2019-03-30T03:19:44.119Z,25.20
2019-03-30T03:24:58.117Z,25.20
2019-03-30T03:30:11.914Z,25.80
2019-03-30T03:32:50.286Z,25.80
2019-03-30T03:35:28.574Z,25.80
2019-03-30T03:38:07.207Z,26.20
2019-03-30T03:40:45.401Z,26.10
2019-03-30T03:43:23.418Z,27.20
2019-03-30T03:48:36.839Z,26.60
2019-03-30T03:51:25.748Z,26.60
2019-03-30T03:53:54.763Z,26.90
2019-03-30T03:59:10.069Z,26.50
2019-03-30T04:01:49.590Z,26.40
2019-03-30T04:04:29.745Z,26.40
2019-03-30T04:07:09.051Z,26.40
2019-03-30T04:09:49.801Z,26.60
2019-03-30T04:12:29.321Z,26.90
2019-03-30T04:15:08.468Z,26.80
2019-03-30T04:20:24.640Z,26.60
2019-03-30T04:23:02.898Z,26.60
2019-03-30T04:25:41.131Z,26.50
2019-03-30T04:28:19.221Z,26.00
2019-03-30T04:30:57.436Z,25.90
2019-03-30T04:33:35.638Z,26.10
2019-03-30T04:36:13.849Z,26.40
2019-03-30T04:38:52.090Z,25.30
2019-03-30T04:44:05.534Z,24.40
2019-03-30T04:46:43.599Z,24.30
2019-03-30T04:49:21.718Z,23.60
2019-03-30T04:51:59.884Z,23.30
2019-03-30T04:54:38.104Z,23.30
2019-03-30T04:57:16.432Z,23.30
2019-03-30T04:59:54.812Z,24.10
2019-03-30T05:02:33.052Z,24.20
2019-03-30T05:05:13.071Z,24.30
2019-03-30T05:07:51.565Z,24.10
2019-03-30T05:10:29.684Z,23.80
2019-03-30T05:15:43.113Z,23.40
2019-03-30T05:20:56.613Z,23.20
2019-03-30T05:23:34.859Z,23.20
2019-03-30T05:26:12.950Z,23.20
2019-03-30T05:28:54.148Z,22.90
2019-03-30T05:31:30.244Z,23.70
2019-03-30T05:34:08.720Z,23.40
2019-03-30T05:39:22.346Z,23.00
2019-03-30T05:42:00.604Z,22.60
2019-03-30T05:44:38.857Z,23.00
2019-03-30T05:47:19.163Z,22.80
2019-03-30T05:49:57.294Z,23.00
2019-03-30T05:52:35.762Z,23.00
2019-03-30T05:55:14.413Z,23.10
2019-03-30T05:57:52.525Z,23.40
2019-03-30T06:00:30.593Z,22.70
2019-03-30T06:03:11.387Z,22.60
2019-03-30T06:05:49.601Z,23.10
2019-03-30T06:16:15.117Z,23.40
2019-03-30T06:21:28.553Z,22.40
2019-03-30T06:26:42.806Z,21.60
2019-03-30T06:29:20.987Z,21.30
2019-03-30T06:31:59.192Z,22.00
2019-03-30T06:34:37.337Z,23.40
2019-03-30T06:37:15.674Z,22.60
2019-03-30T06:39:54.005Z,23.00
2019-03-30T06:47:42.800Z,22.70
2019-03-30T06:50:21.114Z,22.70
2019-03-30T06:52:59.460Z,22.10
2019-03-30T06:58:12.929Z,22.20
2019-03-30T07:00:52.001Z,22.50
2019-03-30T07:03:30.350Z,21.70
2019-03-30T07:06:10.442Z,21.80
2019-03-30T07:11:25.691Z,20.90
2019-03-30T07:16:43.179Z,20.90
2019-03-30T07:19:22.279Z,20.60
2019-03-30T07:22:00.457Z,20.50
2019-03-30T07:24:38.790Z,20.20
2019-03-30T07:27:17.087Z,20.10
2019-03-30T07:29:55.271Z,20.30
2019-03-30T07:32:33.505Z,19.70
2019-03-30T07:35:11.616Z,19.60
2019-03-30T07:40:25.108Z,19.40
2019-03-30T07:43:03.272Z,19.50
2019-03-30T07:45:41.566Z,19.40
2019-03-30T07:48:19.670Z,19.30
2019-03-30T07:50:57.814Z,19.20
2019-03-30T07:53:44.294Z,19.00
2019-03-30T07:56:15.367Z,19.10
2019-03-30T07:58:53.524Z,19.10
2019-03-30T08:01:31.690Z,18.90
2019-03-30T08:04:09.933Z,18.90
2019-03-30T08:06:48.001Z,18.80
2019-03-30T08:09:26.231Z,19.00
2019-03-30T08:12:04.547Z,18.70
2019-03-30T08:14:44.954Z,18.50
2019-03-30T08:17:21.835Z,17.80
2019-03-30T08:20:00.008Z,18.00
2019-03-30T08:22:38.198Z,18.20
2019-03-30T08:25:16.519Z,18.00
2019-03-30T08:27:55.025Z,18.10
2019-03-30T08:30:33.145Z,18.20
2019-03-30T08:35:46.671Z,17.70
2019-03-30T08:38:24.846Z,17.80
2019-03-30T08:41:02.916Z,17.40
2019-03-30T08:43:42.744Z,17.60
2019-03-30T08:46:20.948Z,17.60
2019-03-30T08:48:59.523Z,17.30
2019-03-30T08:51:40.620Z,17.60
2019-03-30T08:54:18.854Z,17.80
2019-03-30T08:56:57.048Z,17.20
2019-03-30T08:59:35.313Z,17.20
2019-03-30T09:02:13.554Z,17.20
2019-03-30T09:04:51.654Z,17.10
2019-03-30T09:07:38.914Z,17.00
2019-03-30T09:10:17.257Z,17.00
2019-03-30T09:12:55.399Z,16.90
2019-03-30T09:15:33.656Z,17.00
2019-03-30T09:18:11.853Z,16.90
2019-03-30T09:20:49.991Z,16.90
2019-03-30T09:23:27.987Z,16.90
2019-03-30T09:26:06.496Z,16.70
2019-03-30T09:28:46.097Z,16.80
2019-03-30T09:31:24.538Z,16.60
2019-03-30T09:34:02.806Z,16.50
2019-03-30T09:36:43.019Z,16.50
2019-03-30T09:39:21.295Z,16.50
2019-03-30T09:41:59.868Z,16.40
2019-03-30T09:44:38.082Z,16.40
2019-03-30T09:47:16.521Z,16.30
2019-03-30T09:49:55.190Z,16.40
2019-03-30T09:52:33.370Z,16.30
2019-03-30T09:55:11.853Z,16.30
2019-03-30T09:57:55.298Z,16.30
2019-03-30T10:00:33.499Z,16.30
2019-03-30T10:03:11.886Z,16.20
2019-03-30T10:05:50.511Z,16.20
2019-03-30T10:08:28.987Z,16.10
2019-03-30T10:11:07.304Z,16.10
2019-03-30T10:13:45.739Z,16.10
2019-03-30T10:16:24.191Z,16.40
2019-03-30T10:19:02.563Z,16.10
2019-03-30T10:21:40.775Z,16.00
2019-03-30T10:24:19.139Z,16.00
2019-03-30T10:26:57.346Z,16.00
2019-03-30T10:29:35.681Z,15.90
2019-03-30T10:32:13.914Z,16.60
2019-03-30T10:34:52.045Z,15.90
2019-03-30T10:37:30.166Z,15.90
2019-03-30T10:40:08.555Z,15.90
2019-03-30T10:42:46.811Z,15.90
2019-03-30T10:45:24.905Z,15.80
2019-03-30T10:48:03.175Z,15.90
2019-03-30T10:50:41.440Z,16.00
2019-03-30T10:53:19.571Z,15.90
2019-03-30T10:56:02.649Z,15.60
2019-03-30T10:58:40.781Z,15.80
2019-03-30T11:01:18.865Z,15.80
2019-03-30T11:03:57.072Z,15.60
2019-03-30T11:06:35.252Z,15.70
2019-03-30T11:09:14.182Z,15.80
2019-03-30T11:11:52.980Z,15.90
2019-03-30T11:14:31.170Z,15.90
2019-03-30T11:17:09.448Z,15.90
2019-03-30T11:19:47.584Z,15.90
2019-03-30T11:22:28.545Z,15.90
2019-03-30T11:25:07.884Z,15.90
2019-03-30T11:27:44.346Z,16.00
2019-03-30T11:30:22.451Z,16.00
2019-03-30T11:33:00.663Z,16.00
2019-03-30T11:35:38.661Z,16.00
2019-03-30T11:38:16.930Z,15.90
2019-03-30T11:40:55.159Z,16.00
2019-03-30T11:43:33.349Z,16.00
2019-03-30T11:46:11.614Z,15.90
2019-03-30T11:48:49.736Z,16.00
2019-03-30T11:51:27.862Z,15.90
2019-03-30T11:54:06.104Z,15.70
2019-03-30T11:56:44.158Z,15.60
2019-03-30T11:59:22.231Z,15.70
2019-03-30T12:02:00.287Z,15.60
2019-03-30T12:04:38.491Z,15.60
2019-03-30T12:07:16.854Z,15.60
2019-03-30T12:09:55.232Z,15.60
2019-03-30T12:12:33.405Z,15.60
2019-03-30T12:15:12.199Z,15.60
2019-03-30T12:17:50.257Z,15.60
2019-03-30T12:20:28.426Z,15.60
2019-03-30T12:23:06.586Z,15.70
2019-03-30T12:25:44.752Z,15.60
2019-03-30T12:28:22.917Z,15.60
2019-03-30T12:31:01.136Z,15.60
2019-03-30T12:33:39.289Z,15.60
2019-03-30T12:36:17.390Z,15.50
2019-03-30T12:38:55.580Z,15.60
2019-03-30T12:41:33.700Z,15.50
2019-03-30T12:44:11.881Z,15.60
2019-03-30T12:46:51.056Z,15.60
2019-03-30T12:49:29.262Z,15.10
2019-03-30T12:52:07.443Z,15.50
2019-03-30T12:54:45.580Z,15.50
2019-03-30T12:57:23.860Z,15.60
2019-03-30T13:00:02.056Z,15.50
2019-03-30T13:02:40.187Z,15.50
2019-03-30T13:05:18.521Z,15.50
2019-03-30T13:07:56.885Z,15.50
2019-03-30T13:10:34.948Z,15.50
2019-03-30T13:13:13.292Z,15.50
2019-03-30T13:15:51.471Z,15.60
2019-03-30T13:18:29.661Z,15.50
2019-03-30T13:21:07.943Z,15.40
2019-03-30T13:23:46.078Z,15.50
2019-03-30T13:26:24.151Z,15.60
2019-03-30T13:29:02.323Z,15.60
2019-03-30T13:31:40.699Z,15.60
2019-03-30T13:34:18.843Z,15.70
2019-03-30T13:36:56.816Z,15.70
2019-03-30T13:39:34.991Z,15.70
2019-03-30T13:42:13.044Z,15.60
2019-03-30T13:44:51.217Z,15.70
2019-03-30T13:47:29.319Z,15.60
2019-03-30T13:50:07.619Z,15.60
2019-03-30T13:52:45.666Z,15.70
2019-03-30T13:55:23.798Z,15.70
2019-03-30T13:58:01.947Z,15.70
2019-03-30T14:00:40.114Z,15.60
2019-03-30T14:03:18.240Z,15.60
2019-03-30T14:05:56.411Z,15.60
2019-03-30T14:08:34.574Z,15.60
2019-03-30T14:11:12.833Z,15.60
2019-03-30T14:13:50.958Z,15.70
2019-03-30T14:16:29.474Z,16.00
2019-03-30T14:19:07.596Z,15.90
2019-03-30T14:21:45.718Z,15.80
2019-03-30T14:24:23.857Z,15.80
2019-03-30T14:27:02.059Z,15.70
2019-03-30T14:29:40.167Z,15.70
2019-03-30T14:32:18.745Z,15.70
2019-03-30T14:34:56.878Z,15.60
2019-03-30T14:37:35.013Z,15.60
2019-03-30T14:40:13.517Z,15.60
2019-03-30T14:42:51.720Z,15.50
2019-03-30T14:45:29.910Z,15.60
2019-03-30T14:48:08.116Z,15.60
2019-03-30T14:50:46.407Z,15.30
2019-03-30T14:53:24.542Z,15.60
2019-03-30T14:56:02.839Z,15.40
2019-03-30T14:58:41.177Z,15.50
2019-03-30T15:01:19.262Z,15.40
2019-03-30T15:03:57.411Z,15.40
2019-03-30T15:06:35.624Z,15.40
2019-03-30T15:09:14.503Z,15.50
2019-03-30T15:11:52.724Z,15.50
2019-03-30T15:14:30.955Z,15.40
2019-03-30T15:17:09.272Z,15.40
2019-03-30T15:19:47.368Z,15.40
2019-03-30T15:22:25.532Z,15.40
2019-03-30T15:25:04.022Z,15.40
2019-03-30T15:27:42.235Z,15.40
2019-03-30T15:30:20.976Z,15.30
2019-03-30T15:32:59.289Z,15.40
2019-03-30T15:35:37.638Z,15.30
2019-03-30T15:38:16.083Z,15.30
2019-03-30T15:40:55.820Z,15.40
2019-03-30T15:43:38.522Z,15.30
2019-03-30T15:46:14.459Z,15.30
2019-03-30T15:48:52.651Z,15.30
2019-03-30T15:51:32.280Z,15.30
2019-03-30T15:54:10.473Z,15.30
2019-03-30T15:56:48.628Z,15.30
2019-03-30T15:59:26.763Z,15.20
2019-03-30T16:02:05.270Z,15.20
2019-03-30T16:04:43.401Z,15.50
2019-03-30T16:07:21.507Z,14.60
2019-03-30T16:09:59.569Z,14.70
2019-03-30T16:12:37.744Z,15.00
2019-03-30T16:15:15.977Z,15.50
2019-03-30T16:17:54.144Z,15.70
2019-03-30T16:20:36.153Z,15.00
2019-03-30T16:23:14.393Z,15.40
2019-03-30T16:25:53.874Z,15.40
2019-03-30T16:28:31.995Z,15.30
2019-03-30T16:31:10.195Z,15.50
2019-03-30T16:33:48.537Z,15.10
2019-03-30T16:36:26.677Z,15.50
2019-03-30T16:41:40.249Z,15.40
2019-03-30T16:44:18.407Z,15.40
2019-03-30T16:46:57.610Z,14.80
2019-03-30T16:49:35.827Z,15.30
2019-03-30T16:52:13.949Z,15.20
2019-03-30T16:54:52.247Z,15.10
2019-03-30T17:00:05.740Z,15.00
2019-03-30T17:02:43.889Z,14.60
2019-03-30T17:05:22.094Z,15.00
2019-03-30T17:10:40.013Z,15.10
2019-03-30T17:13:16.092Z,14.80
2019-03-30T17:18:29.399Z,15.00
2019-03-30T17:21:07.525Z,15.40
2019-03-30T17:23:45.592Z,15.50
2019-03-30T17:26:23.734Z,15.20
2019-03-30T17:29:01.770Z,15.20
2019-03-30T17:31:39.981Z,15.00
2019-03-30T17:34:18.115Z,15.00
2019-03-30T17:36:56.267Z,14.90
2019-03-30T17:39:34.360Z,14.20
2019-03-30T17:42:12.519Z,14.90
2019-03-30T17:44:50.621Z,14.80
2019-03-30T17:47:28.865Z,14.70
2019-03-30T17:50:06.978Z,14.30
2019-03-30T17:52:45.125Z,14.60
2019-03-30T17:58:12.243Z,14.90
2019-03-30T18:04:02.679Z,14.90
2019-03-30T18:06:40.767Z,14.20
2019-03-30T18:09:19.007Z,14.60
2019-03-30T18:11:57.110Z,14.60
2019-03-30T18:14:35.231Z,14.40
2019-03-30T18:17:13.438Z,14.80
2019-03-30T18:19:51.584Z,15.00
2019-03-30T18:22:29.766Z,15.00
2019-03-30T18:25:08.107Z,14.90
2019-03-30T18:27:46.243Z,14.70
2019-03-30T18:30:28.850Z,14.40
2019-03-30T18:33:07.231Z,14.70
2019-03-30T18:35:49.135Z,14.50
2019-03-30T18:38:25.698Z,13.80
2019-03-30T18:41:03.931Z,14.30
2019-03-30T18:43:42.149Z,14.00
2019-03-30T18:46:20.159Z,14.50
2019-03-30T18:48:58.283Z,13.60
2019-03-30T18:51:37.356Z,14.30
2019-03-30T18:54:15.838Z,14.30
2019-03-30T18:56:54.096Z,14.30
2019-03-30T18:59:32.115Z,13.50
2019-03-30T19:02:10.098Z,14.20
2019-03-30T19:04:49.962Z,14.10
2019-03-30T19:07:28.119Z,14.00
2019-03-30T19:10:06.347Z,13.40
2019-03-30T19:12:44.502Z,14.30
2019-03-30T19:15:22.644Z,13.90
2019-03-30T19:18:00.812Z,14.30
2019-03-30T19:20:39.035Z,13.80
2019-03-30T19:23:17.330Z,13.60
2019-03-30T19:25:55.521Z,13.50
2019-03-30T19:28:33.631Z,13.80
2019-03-30T19:31:11.864Z,13.60
2019-03-30T19:33:50.083Z,13.80
2019-03-30T19:36:28.272Z,13.90
2019-03-30T19:39:06.914Z,14.00
2019-03-30T19:41:45.003Z,14.00
2019-03-30T19:44:24.580Z,14.00
2019-03-30T19:47:02.944Z,14.00
2019-03-30T19:49:40.975Z,13.90
2019-03-30T19:52:19.103Z,13.90
2019-03-30T19:54:57.331Z,13.90
2019-03-30T19:57:35.467Z,13.90
2019-03-30T20:00:14.333Z,13.90
2019-03-30T20:02:52.370Z,13.80
2019-03-30T20:05:30.560Z,13.90
2019-03-30T20:08:12.397Z,14.00
2019-03-30T20:10:48.401Z,13.80
2019-03-30T20:13:26.561Z,13.80
2019-03-30T20:16:05.064Z,13.90
2019-03-30T20:18:43.154Z,13.90
2019-03-30T20:21:21.514Z,13.90
2019-03-30T20:23:59.740Z,14.00
2019-03-30T20:26:37.884Z,14.10
2019-03-30T20:29:25.099Z,14.10
2019-03-30T20:31:55.323Z,14.00
2019-03-30T20:34:33.558Z,13.90
2019-03-30T20:39:49.860Z,13.70
2019-03-30T20:42:30.606Z,13.50
2019-03-30T20:45:07.339Z,13.30
2019-03-30T20:47:45.513Z,13.60
2019-03-30T20:50:23.927Z,14.20
2019-03-30T20:53:02.075Z,13.30
2019-03-30T20:55:40.481Z,14.00
2019-03-30T20:58:18.699Z,13.90
2019-03-30T21:00:56.993Z,13.70
2019-03-30T21:03:35.190Z,13.40
2019-03-30T21:06:14.207Z,13.80
2019-03-30T21:08:52.332Z,13.90
2019-03-30T21:16:41.535Z,14.40
2019-03-30T21:19:19.646Z,13.60
2019-03-30T21:21:57.799Z,14.50
2019-03-30T21:27:11.447Z,14.10
2019-03-30T21:29:54.876Z,14.80
2019-03-30T21:32:30.573Z,14.70
2019-03-30T21:35:08.770Z,14.30
2019-03-30T21:37:46.948Z,14.50
2019-03-30T21:40:25.186Z,14.80
2019-03-30T21:43:03.271Z,14.90
2019-03-30T21:45:41.525Z,15.10
2019-03-30T21:48:20.887Z,15.00
2019-03-30T21:50:59.057Z,14.30
2019-03-30T21:53:37.167Z,14.40
2019-03-30T21:56:15.271Z,15.40
2019-03-30T22:01:28.994Z,14.50
2019-03-30T22:04:07.157Z,14.80
2019-03-30T22:06:45.333Z,15.00
2019-03-30T22:09:23.851Z,15.10
2019-03-30T22:12:01.838Z,15.20
2019-03-30T22:17:15.318Z,15.40
2019-03-30T22:27:39.158Z,15.10
2019-03-30T22:30:24.746Z,15.00
2019-03-30T22:32:58.435Z,15.20
2019-03-30T22:38:12.996Z,15.40
2019-03-30T22:40:51.139Z,15.50
2019-03-30T22:43:29.257Z,15.10
2019-03-30T22:48:44.090Z,15.50
2019-03-30T22:51:22.232Z,15.20
2019-03-30T22:54:00.347Z,15.90
2019-03-30T22:56:38.557Z,15.80
2019-03-30T22:59:16.800Z,15.90
2019-03-30T23:04:31.183Z,15.30
2019-03-30T23:07:09.678Z,15.30
2019-03-30T23:12:24.549Z,15.60
2019-03-30T23:15:02.746Z,16.40
2019-03-30T23:17:40.959Z,15.60
2019-03-30T23:20:19.543Z,15.90
2019-03-30T23:25:33.008Z,16.40
2019-03-30T23:28:11.140Z,17.10
2019-03-30T23:30:54.408Z,16.80
2019-03-30T23:36:03.863Z,16.30
2019-03-30T23:38:43.773Z,16.70
2019-03-30T23:41:22.348Z,16.60
2019-03-30T23:46:41.127Z,16.40
2019-03-30T23:49:20.486Z,17.20
2019-03-30T23:51:58.691Z,16.50
2019-03-30T23:54:37.022Z,17.00
2019-03-30T23:57:15.516Z,17.10
2019-03-30T23:59:54.034Z,16.90
